Caribbean Princess — ZCDG8 — position and weather

sailwx.info

Track history (hours):
 
Tides and Currents Weather Stations Pressure Air Temp Water Temp Dewpoint Dewpoint Depression Visibility Wind Speed Wind Dir Waves Ship Positions

Caribbean Princess

Operator: Princess Cruises

Last reported at 2019-Jun-16 08:00 UTC. Time now 2019-Jun-16 15:07 UTC.
Position N 25°30' W 076°24'.

Type: Passenger vessel. MMSI: 310423000.

Wind from 110 at 20 knots

Barometer 1016.4 mb
Air temperature 28.0 ° C
Visibility: greater than 10.8 NM
Dewpoint 25.3 ° C
Water temperature 28.0 ° C

Date/timePositionNaut miles runAvg speedWind from/ knotsBaromVisibWave heightAir tempDewpointWater temp
2019-Jun-16 08:00N 25°30' W 076°24'17017.8 110 / 201016.410.8 28.025.328.0
2019-Jun-15 22:29N 26°08' W 079°28'817.9
2019-Jun-15 22:00N 26°08' W 079°37'918.4
2019-Jun-15 21:30N 26°07' W 079°47'917.9
2019-Jun-15 21:00N 26°06' W 079°57'715.0
2019-Jun-15 20:30N 26°06' W 080°05'2 2.9
2019-Jun-15 19:58N 26°06' W 080°07'0 0.0
2019-Jun-15 19:28N 26°06' W 080°07'0 0.0
2019-Jun-15 18:58N 26°06' W 080°07'0 0.0
2019-Jun-15 18:28N 26°06' W 080°07'0 0.0
2019-Jun-15 17:58N 26°06' W 080°07'0 0.0
2019-Jun-15 17:28N 26°06' W 080°07'0 0.0
2019-Jun-15 16:55N 26°06' W 080°07'0 0.0
2019-Jun-15 16:25N 26°06' W 080°07'0 0.0
2019-Jun-15 15:55N 26°06' W 080°07'0 0.0
2019-Jun-15 15:25N 26°06' W 080°07'0 0.0
2019-Jun-15 14:58N 26°06' W 080°07'0 0.0
2019-Jun-15 14:28N 26°06' W 080°07'0 0.0
2019-Jun-15 13:58N 26°06' W 080°07'0 0.0
2019-Jun-15 13:25N 26°06' W 080°07'0 0.0
2019-Jun-15 12:55N 26°06' W 080°07'0 0.0
2019-Jun-15 12:25N 26°06' W 080°07'0 0.0
2019-Jun-15 11:55N 26°06' W 080°07'0 0.0
2019-Jun-15 11:28N 26°06' W 080°07'0 0.0
2019-Jun-15 10:58N 26°06' W 080°07'0 0.0
2019-Jun-15 10:28N 26°06' W 080°07'0 0.5
2019-Jun-15 10:00N 26°06' W 080°07'4 9.0
2019-Jun-15 09:30N 26°05' W 080°02'510.9
2019-Jun-15 09:00N 26°01' W 079°58'714.6
2019-Jun-15 08:30N 25°56' W 079°52'714.7
2019-Jun-15 08:00N 25°50' W 079°47'714.4
2019-Jun-15 07:30N 25°45' W 079°42'815.5
2019-Jun-15 07:00N 25°37' W 079°41'917.0
2019-Jun-15 06:30N 25°29' W 079°41'  
2019-Jun-11 09:00N 17°00' W 084°48'   110 / 201013.210.8 29.024.930.0
2019-Jun-09 01:38N 25°21' W 079°55'216.0
2019-Jun-09 01:30N 25°23' W 079°55'815.7
2019-Jun-09 01:00N 25°31' W 079°54'815.5
2019-Jun-09 00:30N 25°39' W 079°54'816.2
2019-Jun-09 00:00N 25°47' W 079°53'917.4
2019-Jun-08 23:30N 25°55' W 079°57'917.5
2019-Jun-08 23:00N 26°03' W 080°01'611.6
2019-Jun-08 22:30N 26°06' W 080°06'1 1.5
2019-Jun-08 21:59N 26°06' W 080°07'0 0.0
2019-Jun-08 21:29N 26°06' W 080°07'0 0.0
2019-Jun-08 20:59N 26°06' W 080°07'0 0.0
2019-Jun-08 20:29N 26°06' W 080°07'0 0.0
2019-Jun-08 19:59N 26°06' W 080°07'0 0.0
2019-Jun-08 19:29N 26°06' W 080°07'0 0.0
2019-Jun-08 18:59N 26°06' W 080°07'0 0.0
2019-Jun-08 18:26N 26°06' W 080°07'0 0.0
2019-Jun-08 17:59N 26°06' W 080°07'0 0.0
2019-Jun-08 17:29N 26°06' W 080°07'0 0.0
2019-Jun-08 16:59N 26°06' W 080°07'0 0.0
2019-Jun-08 16:29N 26°06' W 080°07'0 0.0
2019-Jun-08 15:59N 26°06' W 080°07'0 0.0
2019-Jun-08 15:29N 26°06' W 080°07'0 0.0
2019-Jun-08 14:56N 26°06' W 080°07'0 0.0
2019-Jun-08 14:29N 26°06' W 080°07'0 0.0
2019-Jun-08 13:59N 26°06' W 080°07'0 0.0
2019-Jun-08 13:29N 26°06' W 080°07'0 0.0
2019-Jun-08 12:59N 26°06' W 080°07'0 0.0
2019-Jun-08 12:29N 26°06' W 080°07'0 0.0
2019-Jun-08 11:59N 26°06' W 080°07'0 0.0
2019-Jun-08 11:29N 26°06' W 080°07'0 0.0
2019-Jun-08 10:59N 26°06' W 080°07'0 0.0
2019-Jun-08 10:29N 26°06' W 080°07'0 0.6
2019-Jun-08 10:00N 26°06' W 080°07'5 9.2
2019-Jun-08 09:30N 26°06' W 080°02'611.8
2019-Jun-08 09:01N 26°06' W 079°55'713.1
2019-Jun-08 08:31N 26°06' W 079°48'612.7
2019-Jun-08 08:01N 26°07' W 079°41'713.3
2019-Jun-08 07:31N 26°08' W 079°34'714.2
2019-Jun-08 07:00N 26°09' W 079°26'816.4
2019-Jun-08 06:31N 26°11' W 079°17'917.6
2019-Jun-08 06:00N 26°12' W 079°07'59021.8
2019-Jun-07 03:00N 19°42' W 071°06'   090 / 71018.810.8 27.022.829.0
Track history (hours):
 
Tides and Currents Weather Stations Pressure Air Temp Water Temp Dewpoint Dewpoint Depression Visibility Wind Speed Wind Dir Waves Ship Positions

Caribbean Princess

Operator: Princess Cruises

Last reported at 2019-Jun-16 08:00 UTC. Time now 2019-Jun-16 15:07 UTC.
Position N 25°30' W 076°24'.

Type: Passenger vessel. MMSI: 310423000.

Wind from 110 at 20 knots

Barometer 1016.4 mb
Air temperature 28.0 ° C
Visibility: greater than 10.8 NM
Dewpoint 25.3 ° C
Water temperature 28.0 ° C

Date/timePositionNaut miles runAvg speedWind from/ knotsBaromVisibWave heightAir tempDewpointWater temp
2019-Jun-16 08:00N 25°30' W 076°24'17017.8 110 / 201016.410.8 28.025.328.0
2019-Jun-15 22:29N 26°08' W 079°28'817.9
2019-Jun-15 22:00N 26°08' W 079°37'918.4
2019-Jun-15 21:30N 26°07' W 079°47'917.9
2019-Jun-15 21:00N 26°06' W 079°57'715.0
2019-Jun-15 20:30N 26°06' W 080°05'2 2.9
2019-Jun-15 19:58N 26°06' W 080°07'0 0.0
2019-Jun-15 19:28N 26°06' W 080°07'0 0.0
2019-Jun-15 18:58N 26°06' W 080°07'0 0.0
2019-Jun-15 18:28N 26°06' W 080°07'0 0.0
2019-Jun-15 17:58N 26°06' W 080°07'0 0.0
2019-Jun-15 17:28N 26°06' W 080°07'0 0.0
2019-Jun-15 16:55N 26°06' W 080°07'0 0.0
2019-Jun-15 16:25N 26°06' W 080°07'0 0.0
2019-Jun-15 15:55N 26°06' W 080°07'0 0.0
2019-Jun-15 15:25N 26°06' W 080°07'0 0.0
2019-Jun-15 14:58N 26°06' W 080°07'0 0.0
2019-Jun-15 14:28N 26°06' W 080°07'0 0.0
2019-Jun-15 13:58N 26°06' W 080°07'0 0.0
2019-Jun-15 13:25N 26°06' W 080°07'0 0.0
2019-Jun-15 12:55N 26°06' W 080°07'0 0.0
2019-Jun-15 12:25N 26°06' W 080°07'0 0.0
2019-Jun-15 11:55N 26°06' W 080°07'0 0.0
2019-Jun-15 11:28N 26°06' W 080°07'0 0.0
2019-Jun-15 10:58N 26°06' W 080°07'0 0.0
2019-Jun-15 10:28N 26°06' W 080°07'0 0.5
2019-Jun-15 10:00N 26°06' W 080°07'4 9.0
2019-Jun-15 09:30N 26°05' W 080°02'510.9
2019-Jun-15 09:00N 26°01' W 079°58'714.6
2019-Jun-15 08:30N 25°56' W 079°52'714.7
2019-Jun-15 08:00N 25°50' W 079°47'714.4
2019-Jun-15 07:30N 25°45' W 079°42'815.5
2019-Jun-15 07:00N 25°37' W 079°41'917.0
2019-Jun-15 06:30N 25°29' W 079°41'  
2019-Jun-11 09:00N 17°00' W 084°48'   110 / 201013.210.8 29.024.930.0
2019-Jun-09 01:38N 25°21' W 079°55'216.0
2019-Jun-09 01:30N 25°23' W 079°55'815.7
2019-Jun-09 01:00N 25°31' W 079°54'815.5
2019-Jun-09 00:30N 25°39' W 079°54'816.2
2019-Jun-09 00:00N 25°47' W 079°53'917.4
2019-Jun-08 23:30N 25°55' W 079°57'917.5
2019-Jun-08 23:00N 26°03' W 080°01'611.6
2019-Jun-08 22:30N 26°06' W 080°06'1 1.5
2019-Jun-08 21:59N 26°06' W 080°07'0 0.0
2019-Jun-08 21:29N 26°06' W 080°07'0 0.0
2019-Jun-08 20:59N 26°06' W 080°07'0 0.0
2019-Jun-08 20:29N 26°06' W 080°07'0 0.0
2019-Jun-08 19:59N 26°06' W 080°07'0 0.0
2019-Jun-08 19:29N 26°06' W 080°07'0 0.0
2019-Jun-08 18:59N 26°06' W 080°07'0 0.0
2019-Jun-08 18:26N 26°06' W 080°07'0 0.0
2019-Jun-08 17:59N 26°06' W 080°07'0 0.0
2019-Jun-08 17:29N 26°06' W 080°07'0 0.0
2019-Jun-08 16:59N 26°06' W 080°07'0 0.0
2019-Jun-08 16:29N 26°06' W 080°07'0 0.0
2019-Jun-08 15:59N 26°06' W 080°07'0 0.0
2019-Jun-08 15:29N 26°06' W 080°07'0 0.0
2019-Jun-08 14:56N 26°06' W 080°07'0 0.0
2019-Jun-08 14:29N 26°06' W 080°07'0 0.0
2019-Jun-08 13:59N 26°06' W 080°07'0 0.0
2019-Jun-08 13:29N 26°06' W 080°07'0 0.0
2019-Jun-08 12:59N 26°06' W 080°07'0 0.0
2019-Jun-08 12:29N 26°06' W 080°07'0 0.0
2019-Jun-08 11:59N 26°06' W 080°07'0 0.0
2019-Jun-08 11:29N 26°06' W 080°07'0 0.0
2019-Jun-08 10:59N 26°06' W 080°07'0 0.0
2019-Jun-08 10:29N 26°06' W 080°07'0 0.6
2019-Jun-08 10:00N 26°06' W 080°07'5 9.2
2019-Jun-08 09:30N 26°06' W 080°02'611.8
2019-Jun-08 09:01N 26°06' W 079°55'713.1
2019-Jun-08 08:31N 26°06' W 079°48'612.7
2019-Jun-08 08:01N 26°07' W 079°41'713.3
2019-Jun-08 07:31N 26°08' W 079°34'714.2
2019-Jun-08 07:00N 26°09' W 079°26'816.4
2019-Jun-08 06:31N 26°11' W 079°17'917.6
2019-Jun-08 06:00N 26°12' W 079°07'59021.8
2019-Jun-07 03:00N 19°42' W 071°06'   090 / 71018.810.8 27.022.829.0

Dump ship's entire track history